Aviation Digital Data Service (ADDS)

Output produced by METARs form (2107 UTC 24 March 2019)
found at http://www.aviationweather.gov/metar/data/
 
TAF TFFR 241700Z 2418/2518 10015KT 9999 SCT030 BKN045 
     TEMPO 2418/2502 3000 SHRA BKN015TCU BKN040 
     PROB30 
     TEMPO 2510/2515 3000 SHRA BKN015TCU